createdAt,value
2022-12-09T00:00:09.080Z,5.59
2022-12-09T00:02:36.472Z,5.51
2022-12-09T00:05:04.317Z,5.50
2022-12-09T00:07:31.422Z,5.44
2022-12-09T00:09:58.450Z,5.39
2022-12-09T00:12:25.393Z,5.34
2022-12-09T00:14:52.340Z,5.30
2022-12-09T00:17:19.312Z,5.27
2022-12-09T00:19:47.417Z,5.24
2022-12-09T00:22:14.422Z,5.22
2022-12-09T00:24:41.503Z,5.20
2022-12-09T00:27:08.415Z,5.16
2022-12-09T00:29:35.422Z,5.13
2022-12-09T00:32:03.026Z,5.12
2022-12-09T00:34:30.079Z,5.09
2022-12-09T00:36:57.066Z,5.03
2022-12-09T00:39:24.202Z,5.07
2022-12-09T00:41:51.666Z,5.05
2022-12-09T00:44:19.442Z,5.04
2022-12-09T00:46:46.702Z,5.03
2022-12-09T00:49:14.030Z,5.03
2022-12-09T00:51:41.208Z,5.03
2022-12-09T00:54:08.366Z,5.05
2022-12-09T00:56:35.597Z,5.08
2022-12-09T00:59:02.644Z,5.08
2022-12-09T01:01:30.192Z,5.10
2022-12-09T01:03:57.688Z,5.11
2022-12-09T01:06:26.301Z,5.13
2022-12-09T01:08:53.787Z,5.12
2022-12-09T01:11:25.911Z,5.04
2022-12-09T01:13:54.167Z,5.09
2022-12-09T01:16:24.906Z,5.09
2022-12-09T01:18:54.703Z,5.09
2022-12-09T01:21:24.493Z,5.10
2022-12-09T01:23:51.949Z,5.10
2022-12-09T01:26:19.204Z,5.11
2022-12-09T01:28:46.639Z,5.14
2022-12-09T01:31:20.161Z,5.15
2022-12-09T01:33:48.074Z,5.17
2022-12-09T01:36:27.855Z,5.17
2022-12-09T01:38:57.631Z,5.15
2022-12-09T01:41:25.065Z,5.13
2022-12-09T01:44:24.340Z,5.09
2022-12-09T01:46:56.564Z,5.08
2022-12-09T01:49:29.416Z,5.08
2022-12-09T01:52:14.699Z,5.06
2022-12-09T01:54:46.395Z,5.04
2022-12-09T01:57:15.191Z,5.03
2022-12-09T01:59:43.031Z,5.04
2022-12-09T02:02:15.529Z,5.03
2022-12-09T02:04:46.177Z,5.04
2022-12-09T02:07:13.928Z,5.05
2022-12-09T02:09:42.526Z,5.05
2022-12-09T02:12:16.148Z,4.97
2022-12-09T02:15:02.027Z,4.98
2022-12-09T02:17:41.880Z,4.99
2022-12-09T02:20:35.600Z,4.99
2022-12-09T02:23:19.967Z,5.00
2022-12-09T02:26:08.509Z,4.99
2022-12-09T02:29:03.231Z,4.99
2022-12-09T02:31:45.364Z,4.98
2022-12-09T02:34:23.949Z,4.99
2022-12-09T02:37:06.911Z,5.01
2022-12-09T02:39:52.390Z,5.01
2022-12-09T02:42:24.686Z,5.03
2022-12-09T02:44:52.850Z,5.06
2022-12-09T02:47:27.484Z,5.03
2022-12-09T02:50:06.690Z,5.12
2022-12-09T02:52:35.844Z,5.13
2022-12-09T02:55:07.787Z,5.16
2022-12-09T02:57:37.205Z,5.13
2022-12-09T03:00:06.999Z,5.18
2022-12-09T03:02:43.884Z,5.19
2022-12-09T03:05:24.008Z,5.20
2022-12-09T03:08:43.968Z,5.23
2022-12-09T03:11:19.364Z,5.24
2022-12-09T03:14:19.023Z,5.25
2022-12-09T03:17:17.939Z,5.25
2022-12-09T03:19:55.611Z,5.22
2022-12-09T03:22:28.613Z,5.27
2022-12-09T03:25:28.499Z,5.28
2022-12-09T03:28:10.530Z,5.28
2022-12-09T03:30:41.163Z,5.24
2022-12-09T03:33:10.399Z,5.28
2022-12-09T03:35:43.389Z,5.28
2022-12-09T03:38:14.960Z,5.30
2022-12-09T03:40:43.199Z,5.30
2022-12-09T03:43:19.833Z,5.33
2022-12-09T03:45:47.223Z,5.34
2022-12-09T03:48:16.160Z,5.33
2022-12-09T03:50:56.002Z,5.32
2022-12-09T03:53:33.591Z,5.33
2022-12-09T03:56:33.499Z,5.27
2022-12-09T03:59:03.693Z,5.32
2022-12-09T04:01:32.888Z,5.31
2022-12-09T04:04:00.632Z,5.31
2022-12-09T04:06:27.808Z,5.33
2022-12-09T04:09:00.735Z,5.34
2022-12-09T04:11:29.607Z,5.32
2022-12-09T04:13:56.555Z,5.33
2022-12-09T04:16:23.635Z,5.36
2022-12-09T04:18:50.696Z,5.36
2022-12-09T04:21:17.877Z,5.38
2022-12-09T04:23:44.737Z,5.39
2022-12-09T04:26:17.693Z,5.37
2022-12-09T04:28:44.664Z,5.36
2022-12-09T04:31:17.330Z,5.36
2022-12-09T04:33:45.126Z,5.38
2022-12-09T04:36:15.915Z,5.38
2022-12-09T04:38:43.641Z,5.33
2022-12-09T04:41:11.717Z,5.40
2022-12-09T04:43:39.003Z,5.34
2022-12-09T04:46:11.456Z,5.40
2022-12-09T04:48:38.692Z,5.40
2022-12-09T04:51:09.752Z,5.41
2022-12-09T04:53:37.670Z,5.41
2022-12-09T04:56:08.547Z,5.38
2022-12-09T04:58:35.665Z,5.40
2022-12-09T05:01:11.533Z,5.38
2022-12-09T05:03:39.346Z,5.37
2022-12-09T05:06:11.190Z,5.36
2022-12-09T05:08:39.907Z,5.36
2022-12-09T05:11:07.719Z,5.38
2022-12-09T05:13:35.344Z,5.41
2022-12-09T05:16:13.786Z,5.42
2022-12-09T05:18:42.644Z,5.46
2022-12-09T05:21:18.538Z,5.46
2022-12-09T05:23:45.783Z,5.50
2022-12-09T05:26:16.924Z,5.52
2022-12-09T05:28:44.443Z,5.55
2022-12-09T05:31:17.179Z,5.54
2022-12-09T05:33:45.241Z,5.55
2022-12-09T05:36:15.779Z,5.61
2022-12-09T05:38:43.703Z,5.59
2022-12-09T05:41:11.000Z,5.65
2022-12-09T05:43:38.988Z,5.65
2022-12-09T05:46:07.036Z,5.68
2022-12-09T05:48:35.411Z,5.70
2022-12-09T05:51:15.579Z,5.71
2022-12-09T05:53:43.308Z,5.71
2022-12-09T05:56:10.679Z,5.71
2022-12-09T05:58:38.018Z,5.68
2022-12-09T06:01:08.953Z,5.67
2022-12-09T06:03:37.673Z,5.57
2022-12-09T06:06:07.562Z,5.65
2022-12-09T06:08:35.015Z,5.63
2022-12-09T06:11:02.546Z,5.64
2022-12-09T06:13:29.820Z,5.65
2022-12-09T06:16:04.426Z,5.64
2022-12-09T06:18:32.122Z,5.58
2022-12-09T06:20:59.690Z,5.67
2022-12-09T06:23:27.175Z,5.67
2022-12-09T06:25:54.319Z,5.66
2022-12-09T06:28:21.527Z,5.65
2022-12-09T06:30:48.453Z,5.69
2022-12-09T06:33:44.991Z,5.72
2022-12-09T06:36:04.161Z,5.71
2022-12-09T06:38:31.225Z,5.72
2022-12-09T06:40:58.324Z,5.73
2022-12-09T06:43:25.448Z,5.73
2022-12-09T06:45:54.265Z,5.71
2022-12-09T06:48:21.519Z,5.68
2022-12-09T06:50:50.907Z,5.59
2022-12-09T06:53:18.807Z,5.62
2022-12-09T06:55:45.732Z,5.61
2022-12-09T06:58:12.838Z,5.59
2022-12-09T07:00:40.532Z,5.59
2022-12-09T07:03:07.728Z,5.58
2022-12-09T07:05:35.282Z,5.58
2022-12-09T07:08:02.761Z,5.54
2022-12-09T07:10:30.016Z,5.49
2022-12-09T07:12:56.964Z,5.38
2022-12-09T07:15:24.257Z,5.44
2022-12-09T07:17:51.992Z,5.38
2022-12-09T07:20:19.455Z,5.36
2022-12-09T07:22:46.590Z,5.36
2022-12-09T07:25:13.890Z,5.31
2022-12-09T07:27:41.671Z,5.29
2022-12-09T07:30:09.499Z,5.27
2022-12-09T07:32:37.037Z,5.23
2022-12-09T07:35:04.461Z,5.20
2022-12-09T07:37:32.320Z,5.05
2022-12-09T07:39:59.593Z,5.11
2022-12-09T07:42:26.931Z,5.06
2022-12-09T07:44:55.178Z,5.04
2022-12-09T07:47:22.385Z,5.04
2022-12-09T07:49:49.870Z,5.06
2022-12-09T07:52:16.961Z,5.08
2022-12-09T07:54:43.937Z,5.07
2022-12-09T07:57:10.876Z,5.08
2022-12-09T07:59:37.991Z,5.07
2022-12-09T08:02:06.685Z,5.06
2022-12-09T08:04:36.223Z,5.09
2022-12-09T08:07:03.621Z,5.10
2022-12-09T08:09:31.152Z,5.10
2022-12-09T08:11:58.650Z,5.09
2022-12-09T08:14:25.870Z,5.08
2022-12-09T08:16:53.233Z,5.06
2022-12-09T08:19:20.471Z,5.02
2022-12-09T08:21:54.227Z,5.06
2022-12-09T08:24:21.973Z,5.02
2022-12-09T08:26:51.420Z,5.06
2022-12-09T08:29:19.245Z,5.00
2022-12-09T08:31:46.554Z,5.06
2022-12-09T08:34:15.366Z,5.13
2022-12-09T08:36:43.287Z,5.16
2022-12-09T08:39:13.204Z,5.18
2022-12-09T08:41:41.043Z,5.16
2022-12-09T08:44:22.213Z,5.22
2022-12-09T08:46:52.201Z,5.26
2022-12-09T08:49:22.238Z,5.25
2022-12-09T08:51:52.547Z,5.26
2022-12-09T08:54:20.077Z,5.20
2022-12-09T08:56:49.517Z,5.29
2022-12-09T08:59:17.757Z,5.33
2022-12-09T09:01:45.806Z,5.37
2022-12-09T09:04:20.356Z,5.39
2022-12-09T09:06:50.301Z,5.31
2022-12-09T09:09:18.559Z,5.45
2022-12-09T09:11:46.019Z,5.49
2022-12-09T09:14:14.331Z,5.55
2022-12-09T09:16:43.448Z,5.55
2022-12-09T09:19:17.565Z,5.62
2022-12-09T09:21:45.093Z,5.67
2022-12-09T09:24:15.607Z,5.60
2022-12-09T09:26:43.548Z,5.77
2022-12-09T09:29:15.999Z,5.80
2022-12-09T09:31:43.448Z,5.83
2022-12-09T09:34:11.485Z,5.87
2022-12-09T09:36:40.447Z,5.89
2022-12-09T09:39:07.712Z,5.89
2022-12-09T09:41:48.904Z,5.88
2022-12-09T09:44:30.487Z,5.88
2022-12-09T09:46:58.722Z,5.82
2022-12-09T09:49:29.906Z,5.82
2022-12-09T09:51:57.677Z,5.88
2022-12-09T09:54:24.928Z,5.88
2022-12-09T09:57:05.799Z,5.88
2022-12-09T10:00:14.943Z,5.89
2022-12-09T10:03:01.238Z,5.90
2022-12-09T10:05:33.568Z,5.90
2022-12-09T10:08:34.746Z,5.90
2022-12-09T10:11:21.098Z,5.87
2022-12-09T10:14:15.522Z,5.85
2022-12-09T10:17:09.765Z,5.84
2022-12-09T10:19:49.429Z,5.84
2022-12-09T10:22:22.344Z,5.83
2022-12-09T10:24:53.674Z,5.84
2022-12-09T10:27:32.848Z,5.94
2022-12-09T10:30:07.477Z,5.98
2022-12-09T10:32:37.667Z,6.01
2022-12-09T10:35:24.819Z,6.04
2022-12-09T10:37:54.376Z,6.07
2022-12-09T10:40:46.012Z,6.07
2022-12-09T10:43:37.521Z,6.04
2022-12-09T10:46:21.930Z,6.05
2022-12-09T10:48:50.297Z,6.08
2022-12-09T10:51:30.203Z,6.09
2022-12-09T10:54:03.665Z,6.12
2022-12-09T10:56:37.064Z,6.14
2022-12-09T10:59:25.770Z,6.18
2022-12-09T11:01:58.870Z,6.21
2022-12-09T11:04:39.330Z,6.25
2022-12-09T11:07:12.852Z,6.29
2022-12-09T11:09:44.808Z,6.24
2022-12-09T11:12:33.436Z,6.33
2022-12-09T11:15:32.471Z,6.32
2022-12-09T11:18:16.644Z,6.33
2022-12-09T11:20:57.072Z,6.32
2022-12-09T11:23:24.612Z,6.34
2022-12-09T11:26:23.097Z,6.35
2022-12-09T11:29:06.893Z,6.37
2022-12-09T11:31:39.249Z,6.37
2022-12-09T11:34:18.348Z,6.36
2022-12-09T11:36:52.867Z,6.38
2022-12-09T11:39:30.354Z,6.36
2022-12-09T11:42:17.429Z,6.38
2022-12-09T11:45:00.342Z,6.37
2022-12-09T11:50:31.559Z,6.27
2022-12-09T11:53:28.575Z,6.32
2022-12-09T11:56:14.766Z,6.34
2022-12-09T11:58:53.899Z,6.35
2022-12-09T12:01:32.580Z,6.36
2022-12-09T12:04:05.881Z,6.35
2022-12-09T12:06:50.754Z,6.28
2022-12-09T12:09:27.560Z,6.22
2022-12-09T12:12:06.391Z,6.19
2022-12-09T12:14:38.198Z,6.14
2022-12-09T12:17:26.036Z,6.09
2022-12-09T12:19:56.293Z,5.99
2022-12-09T12:23:09.618Z,5.92
2022-12-09T12:25:59.816Z,5.92
2022-12-09T12:29:06.904Z,5.81
2022-12-09T12:32:15.707Z,5.92
2022-12-09T12:35:20.346Z,5.90
2022-12-09T12:38:22.048Z,5.87
2022-12-09T12:41:24.087Z,5.84
2022-12-09T12:45:13.738Z,5.82
2022-12-09T12:47:57.660Z,5.81
2022-12-09T12:50:51.735Z,5.81
2022-12-09T12:53:29.502Z,5.84
2022-12-09T12:56:09.408Z,5.87
2022-12-09T12:58:36.293Z,5.90
2022-12-09T13:01:30.694Z,5.91
2022-12-09T13:04:25.160Z,5.93
2022-12-09T13:07:13.229Z,5.94
2022-12-09T13:09:55.000Z,5.91
2022-12-09T13:12:54.021Z,5.94
2022-12-09T13:15:34.773Z,5.90
2022-12-09T13:18:17.535Z,5.78
2022-12-09T13:20:56.674Z,5.85
2022-12-09T13:23:58.515Z,5.85
2022-12-09T13:27:00.291Z,5.81
2022-12-09T13:29:52.441Z,5.79
2022-12-09T13:32:58.248Z,5.76
2022-12-09T13:35:54.784Z,5.68
2022-12-09T13:38:39.642Z,5.72
2022-12-09T13:41:31.413Z,5.67
2022-12-09T13:44:13.667Z,5.66
2022-12-09T13:46:42.911Z,5.65
2022-12-09T13:49:18.221Z,5.63
2022-12-09T13:51:52.693Z,5.62
2022-12-09T13:54:23.881Z,5.62
2022-12-09T13:57:20.251Z,5.57
2022-12-09T13:59:59.249Z,5.55
2022-12-09T14:02:43.048Z,5.56
2022-12-09T14:05:19.825Z,5.54
2022-12-09T14:07:50.881Z,5.53
2022-12-09T14:10:50.215Z,5.51
2022-12-09T14:13:31.868Z,5.51
2022-12-09T14:16:17.389Z,5.45
2022-12-09T14:18:44.715Z,5.46
2022-12-09T14:21:29.790Z,5.44
2022-12-09T14:24:11.435Z,5.43
2022-12-09T14:27:10.301Z,5.43
2022-12-09T14:29:53.970Z,5.41
2022-12-09T14:32:49.900Z,5.39
2022-12-09T14:35:39.806Z,5.35
2022-12-09T14:38:28.558Z,5.35
2022-12-09T14:41:26.035Z,5.35
2022-12-09T14:44:15.879Z,5.29
2022-12-09T14:46:46.424Z,5.35
2022-12-09T14:49:20.837Z,5.35
2022-12-09T14:51:55.108Z,5.33
2022-12-09T14:54:36.145Z,5.31
2022-12-09T14:57:07.388Z,5.29
2022-12-09T14:59:34.940Z,5.29
2022-12-09T15:02:09.158Z,5.27
2022-12-09T15:04:43.218Z,5.26
2022-12-09T15:07:14.136Z,5.23
2022-12-09T15:10:04.757Z,5.22
2022-12-09T15:12:42.319Z,5.20
2022-12-09T15:15:24.425Z,5.15
2022-12-09T15:18:00.109Z,5.17
2022-12-09T15:20:37.240Z,5.15
2022-12-09T15:23:30.100Z,5.14
2022-12-09T15:26:03.189Z,5.11
2022-12-09T15:28:34.223Z,5.10
2022-12-09T15:31:03.800Z,5.07
2022-12-09T15:33:40.218Z,5.02
2022-12-09T15:36:26.383Z,4.98
2022-12-09T15:39:25.947Z,4.91
2022-12-09T15:42:08.121Z,4.94
2022-12-09T15:45:00.278Z,4.79
2022-12-09T15:47:33.876Z,4.92
2022-12-09T15:50:22.354Z,4.90
2022-12-09T15:53:37.192Z,4.88
2022-12-09T15:56:18.625Z,4.92
2022-12-09T15:58:50.581Z,4.93
2022-12-09T16:01:24.636Z,4.88
2022-12-09T16:03:54.069Z,4.83
2022-12-09T16:06:28.871Z,4.64
2022-12-09T16:08:56.771Z,4.56
2022-12-09T16:11:47.959Z,4.49
2022-12-09T16:14:16.622Z,4.39
2022-12-09T16:16:58.941Z,4.25
2022-12-09T16:19:36.278Z,4.11
2022-12-09T16:22:21.714Z,4.05
2022-12-09T16:27:48.506Z,4.10
2022-12-09T16:30:24.606Z,4.15
2022-12-09T16:33:02.384Z,4.11
2022-12-09T16:35:40.146Z,4.07
2022-12-09T16:38:09.957Z,4.15
2022-12-09T16:40:45.681Z,4.24
2022-12-09T16:43:20.339Z,4.34
2022-12-09T16:46:07.644Z,4.43
2022-12-09T16:48:34.551Z,4.50
2022-12-09T16:51:11.788Z,4.52
2022-12-09T16:53:47.622Z,4.64
2022-12-09T16:56:28.019Z,4.69
2022-12-09T16:58:55.599Z,4.74
2022-12-09T17:01:34.802Z,4.80
2022-12-09T17:04:11.491Z,4.81
2022-12-09T17:06:38.953Z,4.82
2022-12-09T17:09:06.049Z,4.80
2022-12-09T17:11:34.293Z,4.87
2022-12-09T17:14:01.156Z,4.91
2022-12-09T17:16:28.119Z,4.91
2022-12-09T17:18:55.142Z,4.91
2022-12-09T17:21:22.034Z,4.92
2022-12-09T17:23:49.038Z,4.91
2022-12-09T17:26:19.001Z,4.84
2022-12-09T17:28:46.926Z,4.90
2022-12-09T17:31:18.604Z,4.90
2022-12-09T17:33:45.967Z,4.89
2022-12-09T17:36:14.609Z,4.89
2022-12-09T17:38:42.050Z,4.87
2022-12-09T17:41:15.921Z,4.84
2022-12-09T17:43:43.266Z,4.83
2022-12-09T17:46:11.785Z,4.81
2022-12-09T17:48:42.011Z,4.78
2022-12-09T17:51:17.739Z,4.73
2022-12-09T17:53:45.562Z,4.67
2022-12-09T17:56:19.840Z,4.59
2022-12-09T17:58:48.110Z,4.64
2022-12-09T18:01:19.151Z,4.61
2022-12-09T18:03:55.892Z,4.60
2022-12-09T18:06:27.815Z,4.60
2022-12-09T18:08:54.852Z,4.61
2022-12-09T18:11:22.483Z,4.60
2022-12-09T18:13:51.198Z,4.62
2022-12-09T18:16:18.993Z,4.61
2022-12-09T18:18:46.561Z,4.58
2022-12-09T18:21:15.946Z,4.57
2022-12-09T18:23:43.933Z,4.58
2022-12-09T18:26:14.881Z,4.59
2022-12-09T18:28:42.249Z,4.63
2022-12-09T18:31:19.103Z,4.66
2022-12-09T18:33:46.651Z,4.66
2022-12-09T18:36:20.554Z,4.66
2022-12-09T18:38:47.924Z,4.65
2022-12-09T18:41:22.306Z,4.61
2022-12-09T18:43:52.470Z,4.60
2022-12-09T18:46:29.855Z,4.57
2022-12-09T18:49:05.674Z,4.54
2022-12-09T18:51:32.939Z,4.55
2022-12-09T18:54:01.847Z,4.55
2022-12-09T18:56:29.288Z,4.58
2022-12-09T18:59:06.518Z,4.59
2022-12-09T19:01:39.658Z,4.61
2022-12-09T19:04:10.422Z,4.58
2022-12-09T19:06:39.966Z,4.63
2022-12-09T19:09:14.836Z,4.61
2022-12-09T19:11:43.752Z,4.70
2022-12-09T19:14:11.141Z,4.70
2022-12-09T19:16:38.944Z,4.71
2022-12-09T19:19:10.493Z,4.73
2022-12-09T19:21:39.072Z,4.70
2022-12-09T19:24:07.514Z,4.75
2022-12-09T19:26:37.613Z,4.73
2022-12-09T19:29:07.703Z,4.70
2022-12-09T19:31:44.711Z,4.69
2022-12-09T19:34:24.749Z,4.72
2022-12-09T19:36:55.319Z,4.74
2022-12-09T19:39:24.810Z,4.76
2022-12-09T19:41:51.748Z,4.75
2022-12-09T19:44:44.368Z,4.76
2022-12-09T19:47:07.609Z,4.73
2022-12-09T19:49:34.633Z,4.71
2022-12-09T19:52:01.596Z,4.70
2022-12-09T19:54:29.618Z,4.63
2022-12-09T19:56:56.705Z,4.61
2022-12-09T19:59:23.617Z,4.61
2022-12-09T20:01:50.628Z,4.62
2022-12-09T20:07:08.501Z,4.69
2022-12-09T20:09:37.094Z,4.71
2022-12-09T20:12:04.839Z,4.74
2022-12-09T20:14:31.819Z,4.75
2022-12-09T20:16:58.695Z,4.78
2022-12-09T20:19:25.582Z,4.80
2022-12-09T20:21:52.508Z,4.81
2022-12-09T20:24:19.406Z,4.75
2022-12-09T20:26:46.292Z,4.72
2022-12-09T20:29:13.508Z,4.63
2022-12-09T20:31:41.783Z,4.62
2022-12-09T20:34:15.987Z,4.62
2022-12-09T20:36:44.834Z,4.66
2022-12-09T20:39:19.058Z,4.67
2022-12-09T20:41:47.060Z,4.68
2022-12-09T20:44:15.684Z,4.60
2022-12-09T20:46:51.098Z,4.45
2022-12-09T20:49:20.386Z,4.50
2022-12-09T20:51:48.603Z,4.45
2022-12-09T20:54:15.632Z,4.36
2022-12-09T20:56:42.561Z,4.27
2022-12-09T20:59:12.098Z,4.23
2022-12-09T21:01:39.734Z,4.24
2022-12-09T21:04:07.734Z,4.23
2022-12-09T21:06:39.766Z,4.36
2022-12-09T21:09:17.337Z,4.43
2022-12-09T21:11:45.114Z,4.43
2022-12-09T21:14:13.239Z,4.51
2022-12-09T21:16:42.273Z,4.52
2022-12-09T21:19:14.068Z,4.57
2022-12-09T21:21:46.697Z,4.60
2022-12-09T21:24:15.817Z,4.60
2022-12-09T21:26:42.744Z,4.58
2022-12-09T21:29:13.522Z,4.61
2022-12-09T21:31:42.075Z,4.60
2022-12-09T21:34:10.576Z,4.59
2022-12-09T21:36:41.190Z,4.58
2022-12-09T21:39:09.082Z,4.58
2022-12-09T21:41:37.405Z,4.58
2022-12-09T21:44:05.798Z,4.62
2022-12-09T21:46:36.470Z,4.63
2022-12-09T21:49:06.397Z,4.63
2022-12-09T21:51:34.925Z,4.66
2022-12-09T21:54:02.165Z,4.60
2022-12-09T21:56:32.687Z,4.68
2022-12-09T21:59:00.334Z,4.68
2022-12-09T22:01:33.765Z,4.68
2022-12-09T22:04:02.616Z,4.68
2022-12-09T22:06:30.426Z,4.67
2022-12-09T22:09:01.893Z,4.66
2022-12-09T22:11:31.683Z,4.66
2022-12-09T22:14:00.683Z,4.66
2022-12-09T22:16:48.393Z,4.66
2022-12-09T22:19:18.650Z,4.63
2022-12-09T22:21:45.935Z,4.59
2022-12-09T22:24:15.283Z,4.63
2022-12-09T22:26:45.566Z,4.64
2022-12-09T22:29:15.262Z,4.62
2022-12-09T22:31:43.298Z,4.61
2022-12-09T22:34:20.790Z,4.61
2022-12-09T22:36:49.346Z,4.62
2022-12-09T22:39:21.853Z,4.62
2022-12-09T22:41:48.822Z,4.62
2022-12-09T22:44:18.892Z,4.63
2022-12-09T22:46:46.689Z,4.64
2022-12-09T22:49:15.358Z,4.61
2022-12-09T22:51:43.092Z,4.59
2022-12-09T22:54:10.862Z,4.60
2022-12-09T22:56:40.583Z,4.57
2022-12-09T22:59:07.747Z,4.57
2022-12-09T23:01:37.346Z,4.57
2022-12-09T23:04:07.135Z,4.52
2022-12-09T23:06:37.234Z,4.52
2022-12-09T23:09:06.128Z,4.61
2022-12-09T23:11:33.003Z,4.63
2022-12-09T23:14:00.556Z,4.65
2022-12-09T23:16:27.863Z,4.67
2022-12-09T23:18:57.444Z,4.68
2022-12-09T23:21:37.166Z,4.65
2022-12-09T23:24:11.743Z,4.66
2022-12-09T23:26:40.832Z,4.68
2022-12-09T23:29:13.732Z,4.69
2022-12-09T23:31:41.545Z,4.70
2022-12-09T23:34:10.288Z,4.69
2022-12-09T23:36:39.830Z,4.70
2022-12-09T23:39:12.982Z,4.72
2022-12-09T23:41:41.786Z,4.73
2022-12-09T23:44:15.743Z,4.67
2022-12-09T23:46:43.024Z,4.74
2022-12-09T23:49:10.203Z,4.74
2022-12-09T23:51:40.523Z,4.75
2022-12-09T23:54:09.252Z,4.76
2022-12-09T23:56:39.844Z,4.75
2022-12-09T23:59:11.075Z,4.75
